sensor_id;sensor_type;location;lat;lon;timestamp;temperature;humidity
43808;DHT22;29438;50.664;10.098;2022-11-04T00:01:53;8.50;93.20
43808;DHT22;29438;50.664;10.098;2022-11-04T00:04:20;8.60;93.00
43808;DHT22;29438;50.664;10.098;2022-11-04T00:06:46;8.70;92.80
43808;DHT22;29438;50.664;10.098;2022-11-04T00:09:18;8.70;92.50
43808;DHT22;29438;50.664;10.098;2022-11-04T00:11:44;8.70;92.40
43808;DHT22;29438;50.664;10.098;2022-11-04T00:14:29;8.70;92.20
43808;DHT22;29438;50.664;10.098;2022-11-04T00:16:56;8.70;92.20
43808;DHT22;29438;50.664;10.098;2022-11-04T00:19:40;8.80;92.20
43808;DHT22;29438;50.664;10.098;2022-11-04T00:22:25;8.80;92.10
43808;DHT22;29438;50.664;10.098;2022-11-04T00:25:09;8.80;91.90
43808;DHT22;29438;50.664;10.098;2022-11-04T00:28:04;8.90;91.80
43808;DHT22;29438;50.664;10.098;2022-11-04T00:30:53;8.90;91.70
43808;DHT22;29438;50.664;10.098;2022-11-04T00:33:19;9.00;91.60
43808;DHT22;29438;50.664;10.098;2022-11-04T00:35:53;9.00;91.40
43808;DHT22;29438;50.664;10.098;2022-11-04T00:38:19;9.00;91.40
43808;DHT22;29438;50.664;10.098;2022-11-04T00:40:45;9.10;91.60
43808;DHT22;29438;50.664;10.098;2022-11-04T00:43:10;9.30;92.20
43808;DHT22;29438;50.664;10.098;2022-11-04T00:45:36;9.50;92.20
43808;DHT22;29438;50.664;10.098;2022-11-04T00:48:02;9.60;92.30
43808;DHT22;29438;50.664;10.098;2022-11-04T00:50:28;9.70;92.10
43808;DHT22;29438;50.664;10.098;2022-11-04T00:53:00;9.80;92.20
43808;DHT22;29438;50.664;10.098;2022-11-04T00:55:26;9.80;92.10
43808;DHT22;29438;50.664;10.098;2022-11-04T00:57:52;9.70;92.30
43808;DHT22;29438;50.664;10.098;2022-11-04T01:00:18;9.70;92.40
43808;DHT22;29438;50.664;10.098;2022-11-04T01:02:44;9.70;92.50
43808;DHT22;29438;50.664;10.098;2022-11-04T01:05:10;9.70;92.60
43808;DHT22;29438;50.664;10.098;2022-11-04T01:07:36;9.60;92.50
43808;DHT22;29438;50.664;10.098;2022-11-04T01:10:02;9.70;92.50
43808;DHT22;29438;50.664;10.098;2022-11-04T01:12:28;9.60;92.30
43808;DHT22;29438;50.664;10.098;2022-11-04T01:14:53;9.60;92.30
43808;DHT22;29438;50.664;10.098;2022-11-04T01:17:19;9.60;92.30
43808;DHT22;29438;50.664;10.098;2022-11-04T01:19:45;9.70;92.10
43808;DHT22;29438;50.664;10.098;2022-11-04T01:22:10;9.70;92.10
43808;DHT22;29438;50.664;10.098;2022-11-04T01:24:36;9.70;91.90
43808;DHT22;29438;50.664;10.098;2022-11-04T01:27:01;9.70;91.90
43808;DHT22;29438;50.664;10.098;2022-11-04T01:29:27;9.70;91.90
43808;DHT22;29438;50.664;10.098;2022-11-04T01:31:53;9.70;91.80
43808;DHT22;29438;50.664;10.098;2022-11-04T01:34:18;9.70;91.70
43808;DHT22;29438;50.664;10.098;2022-11-04T01:36:44;9.70;91.50
43808;DHT22;29438;50.664;10.098;2022-11-04T01:39:11;9.70;91.30
43808;DHT22;29438;50.664;10.098;2022-11-04T01:41:37;9.70;90.90
43808;DHT22;29438;50.664;10.098;2022-11-04T01:52:48;9.70;90.20
43808;DHT22;29438;50.664;10.098;2022-11-04T01:55:18;9.70;90.30
43808;DHT22;29438;50.664;10.098;2022-11-04T01:57:46;9.70;90.30
43808;DHT22;29438;50.664;10.098;2022-11-04T02:00:13;9.70;90.20
43808;DHT22;29438;50.664;10.098;2022-11-04T02:02:47;9.70;90.20
43808;DHT22;29438;50.664;10.098;2022-11-04T02:05:14;9.70;90.20
43808;DHT22;29438;50.664;10.098;2022-11-04T02:07:40;9.70;90.30
43808;DHT22;29438;50.664;10.098;2022-11-04T02:10:06;9.70;90.30
43808;DHT22;29438;50.664;10.098;2022-11-04T02:12:32;9.70;90.40
43808;DHT22;29438;50.664;10.098;2022-11-04T02:21:29;9.80;90.20
43808;DHT22;29438;50.664;10.098;2022-11-04T02:29:32;9.80;89.90
43808;DHT22;29438;50.664;10.098;2022-11-04T02:35:00;9.80;89.90
43808;DHT22;29438;50.664;10.098;2022-11-04T02:40:17;9.80;90.00
43808;DHT22;29438;50.664;10.098;2022-11-04T02:43:22;9.80;89.90
43808;DHT22;29438;50.664;10.098;2022-11-04T02:45:54;9.80;89.90
43808;DHT22;29438;50.664;10.098;2022-11-04T02:48:40;9.80;89.70
43808;DHT22;29438;50.664;10.098;2022-11-04T02:51:17;9.70;89.60
43808;DHT22;29438;50.664;10.098;2022-11-04T02:53:52;9.80;89.50
43808;DHT22;29438;50.664;10.098;2022-11-04T02:56:22;9.80;89.50
43808;DHT22;29438;50.664;10.098;2022-11-04T02:58:55;9.70;89.40
43808;DHT22;29438;50.664;10.098;2022-11-04T03:01:26;9.70;89.50
43808;DHT22;29438;50.664;10.098;2022-11-04T03:04:00;9.80;89.10
43808;DHT22;29438;50.664;10.098;2022-11-04T03:06:27;9.70;89.30
43808;DHT22;29438;50.664;10.098;2022-11-04T03:08:54;9.70;89.40
43808;DHT22;29438;50.664;10.098;2022-11-04T03:11:25;9.70;89.50
43808;DHT22;29438;50.664;10.098;2022-11-04T03:14:09;9.70;89.60
43808;DHT22;29438;50.664;10.098;2022-11-04T03:16:47;9.70;89.60
43808;DHT22;29438;50.664;10.098;2022-11-04T03:22:20;9.60;89.70
43808;DHT22;29438;50.664;10.098;2022-11-04T03:24:47;9.60;89.80
43808;DHT22;29438;50.664;10.098;2022-11-04T03:32:56;9.50;90.30
43808;DHT22;29438;50.664;10.098;2022-11-04T03:35:23;9.50;90.40
43808;DHT22;29438;50.664;10.098;2022-11-04T03:37:49;9.40;90.00
43808;DHT22;29438;50.664;10.098;2022-11-04T03:40:16;9.30;90.30
43808;DHT22;29438;50.664;10.098;2022-11-04T03:42:47;9.20;90.20
43808;DHT22;29438;50.664;10.098;2022-11-04T03:45:15;9.00;90.30
43808;DHT22;29438;50.664;10.098;2022-11-04T03:47:40;8.90;90.40
43808;DHT22;29438;50.664;10.098;2022-11-04T03:50:08;8.80;90.30
43808;DHT22;29438;50.664;10.098;2022-11-04T03:52:35;8.80;90.10
43808;DHT22;29438;50.664;10.098;2022-11-04T03:55:02;8.80;90.20
43808;DHT22;29438;50.664;10.098;2022-11-04T03:57:54;8.80;90.60
43808;DHT22;29438;50.664;10.098;2022-11-04T04:00:22;8.70;91.10
43808;DHT22;29438;50.664;10.098;2022-11-04T04:03:12;8.70;91.30
43808;DHT22;29438;50.664;10.098;2022-11-04T04:08:17;8.50;92.20
43808;DHT22;29438;50.664;10.098;2022-11-04T04:16:41;8.40;92.30
43808;DHT22;29438;50.664;10.098;2022-11-04T04:19:17;8.30;92.30
43808;DHT22;29438;50.664;10.098;2022-11-04T04:21:52;8.30;92.30
43808;DHT22;29438;50.664;10.098;2022-11-04T04:24:21;8.30;92.50
43808;DHT22;29438;50.664;10.098;2022-11-04T04:27:06;8.20;92.50
43808;DHT22;29438;50.664;10.098;2022-11-04T04:29:51;8.20;92.60
43808;DHT22;29438;50.664;10.098;2022-11-04T04:32:20;8.20;92.70
43808;DHT22;29438;50.664;10.098;2022-11-04T04:34:46;8.20;92.80
43808;DHT22;29438;50.664;10.098;2022-11-04T04:37:23;8.10;92.80
43808;DHT22;29438;50.664;10.098;2022-11-04T04:39:52;8.10;92.90
43808;DHT22;29438;50.664;10.098;2022-11-04T04:42:37;8.00;93.00
43808;DHT22;29438;50.664;10.098;2022-11-04T04:45:33;8.00;93.00
43808;DHT22;29438;50.664;10.098;2022-11-04T04:48:00;8.00;93.10
43808;DHT22;29438;50.664;10.098;2022-11-04T04:50:29;8.10;93.20
43808;DHT22;29438;50.664;10.098;2022-11-04T04:52:57;8.10;93.30
43808;DHT22;29438;50.664;10.098;2022-11-04T04:55:24;8.10;93.10
43808;DHT22;29438;50.664;10.098;2022-11-04T04:57:50;8.20;92.90
43808;DHT22;29438;50.664;10.098;2022-11-04T05:00:18;8.10;92.70
43808;DHT22;29438;50.664;10.098;2022-11-04T05:02:44;8.10;92.50
43808;DHT22;29438;50.664;10.098;2022-11-04T05:05:10;8.10;92.50
43808;DHT22;29438;50.664;10.098;2022-11-04T05:07:37;8.00;92.40
43808;DHT22;29438;50.664;10.098;2022-11-04T05:10:04;8.00;92.30
43808;DHT22;29438;50.664;10.098;2022-11-04T05:12:29;7.90;92.40
43808;DHT22;29438;50.664;10.098;2022-11-04T05:15:15;7.90;92.60
43808;DHT22;29438;50.664;10.098;2022-11-04T05:17:41;8.00;92.70
43808;DHT22;29438;50.664;10.098;2022-11-04T05:20:08;8.00;92.60
43808;DHT22;29438;50.664;10.098;2022-11-04T05:22:34;8.10;92.30
43808;DHT22;29438;50.664;10.098;2022-11-04T05:24:59;8.20;92.20
43808;DHT22;29438;50.664;10.098;2022-11-04T05:27:25;8.10;92.00
43808;DHT22;29438;50.664;10.098;2022-11-04T05:29:50;8.10;91.90
43808;DHT22;29438;50.664;10.098;2022-11-04T05:32:16;8.10;91.90
43808;DHT22;29438;50.664;10.098;2022-11-04T05:34:41;8.00;91.80
43808;DHT22;29438;50.664;10.098;2022-11-04T05:37:07;8.00;91.90
43808;DHT22;29438;50.664;10.098;2022-11-04T05:39:33;8.00;92.10
43808;DHT22;29438;50.664;10.098;2022-11-04T05:41:59;8.00;92.10
43808;DHT22;29438;50.664;10.098;2022-11-04T05:44:25;8.10;92.20
43808;DHT22;29438;50.664;10.098;2022-11-04T05:46:51;8.10;92.30
43808;DHT22;29438;50.664;10.098;2022-11-04T05:49:16;8.10;92.30
43808;DHT22;29438;50.664;10.098;2022-11-04T05:51:42;8.10;92.30
43808;DHT22;29438;50.664;10.098;2022-11-04T05:54:07;8.00;92.10
43808;DHT22;29438;50.664;10.098;2022-11-04T05:56:33;8.00;91.80
43808;DHT22;29438;50.664;10.098;2022-11-04T05:58:59;8.00;91.40
43808;DHT22;29438;50.664;10.098;2022-11-04T06:01:34;8.00;91.20
43808;DHT22;29438;50.664;10.098;2022-11-04T06:04:01;7.90;91.20
43808;DHT22;29438;50.664;10.098;2022-11-04T06:06:29;7.90;91.20
43808;DHT22;29438;50.664;10.098;2022-11-04T06:08:56;7.80;91.30
43808;DHT22;29438;50.664;10.098;2022-11-04T06:11:22;7.70;91.30
43808;DHT22;29438;50.664;10.098;2022-11-04T06:13:49;7.70;91.50
43808;DHT22;29438;50.664;10.098;2022-11-04T06:16:14;7.70;91.60
43808;DHT22;29438;50.664;10.098;2022-11-04T06:18:40;7.50;91.70
43808;DHT22;29438;50.664;10.098;2022-11-04T06:23:37;7.40;91.90
43808;DHT22;29438;50.664;10.098;2022-11-04T06:26:03;7.40;92.10
43808;DHT22;29438;50.664;10.098;2022-11-04T06:28:29;7.40;92.30
43808;DHT22;29438;50.664;10.098;2022-11-04T06:30:59;7.40;92.40
43808;DHT22;29438;50.664;10.098;2022-11-04T06:33:25;7.40;92.50
43808;DHT22;29438;50.664;10.098;2022-11-04T06:35:51;7.50;92.60
43808;DHT22;29438;50.664;10.098;2022-11-04T06:38:17;7.50;92.70
43808;DHT22;29438;50.664;10.098;2022-11-04T06:40:42;7.50;92.70
43808;DHT22;29438;50.664;10.098;2022-11-04T06:43:08;7.60;92.70
43808;DHT22;29438;50.664;10.098;2022-11-04T06:45:33;7.60;92.50
43808;DHT22;29438;50.664;10.098;2022-11-04T06:47:59;7.50;92.40
43808;DHT22;29438;50.664;10.098;2022-11-04T06:50:24;7.50;92.40
43808;DHT22;29438;50.664;10.098;2022-11-04T06:52:50;7.40;92.40
43808;DHT22;29438;50.664;10.098;2022-11-04T06:55:16;7.50;92.50
43808;DHT22;29438;50.664;10.098;2022-11-04T06:57:41;7.50;92.50
43808;DHT22;29438;50.664;10.098;2022-11-04T07:00:07;7.40;92.60
43808;DHT22;29438;50.664;10.098;2022-11-04T07:02:33;7.50;92.60
43808;DHT22;29438;50.664;10.098;2022-11-04T07:04:58;7.50;92.50
43808;DHT22;29438;50.664;10.098;2022-11-04T07:07:24;7.40;92.40
43808;DHT22;29438;50.664;10.098;2022-11-04T07:09:49;7.30;92.30
43808;DHT22;29438;50.664;10.098;2022-11-04T07:12:15;7.40;92.10
43808;DHT22;29438;50.664;10.098;2022-11-04T07:14:40;7.30;91.90
43808;DHT22;29438;50.664;10.098;2022-11-04T07:17:06;7.30;91.80
43808;DHT22;29438;50.664;10.098;2022-11-04T07:19:32;7.30;91.70
43808;DHT22;29438;50.664;10.098;2022-11-04T07:21:57;7.30;91.70
43808;DHT22;29438;50.664;10.098;2022-11-04T07:24:23;7.30;91.70
43808;DHT22;29438;50.664;10.098;2022-11-04T07:26:48;7.30;91.80
43808;DHT22;29438;50.664;10.098;2022-11-04T07:29:14;7.20;91.90
43808;DHT22;29438;50.664;10.098;2022-11-04T07:31:39;7.30;91.80
43808;DHT22;29438;50.664;10.098;2022-11-04T07:34:05;7.30;91.80
43808;DHT22;29438;50.664;10.098;2022-11-04T07:36:30;7.40;91.90
43808;DHT22;29438;50.664;10.098;2022-11-04T07:38:56;7.50;91.80
43808;DHT22;29438;50.664;10.098;2022-11-04T07:41:22;7.60;91.70
43808;DHT22;29438;50.664;10.098;2022-11-04T07:43:51;7.70;91.60
43808;DHT22;29438;50.664;10.098;2022-11-04T07:46:18;7.80;91.50
43808;DHT22;29438;50.664;10.098;2022-11-04T07:48:43;7.80;91.20
43808;DHT22;29438;50.664;10.098;2022-11-04T07:51:12;7.90;91.10
43808;DHT22;29438;50.664;10.098;2022-11-04T07:53:38;7.90;90.80
43808;DHT22;29438;50.664;10.098;2022-11-04T07:56:08;7.90;90.50
43808;DHT22;29438;50.664;10.098;2022-11-04T07:58:36;7.90;90.10
43808;DHT22;29438;50.664;10.098;2022-11-04T08:01:04;7.90;90.00
43808;DHT22;29438;50.664;10.098;2022-11-04T08:03:30;7.90;90.00
43808;DHT22;29438;50.664;10.098;2022-11-04T08:05:57;7.90;90.00
43808;DHT22;29438;50.664;10.098;2022-11-04T08:08:23;7.90;89.70
43808;DHT22;29438;50.664;10.098;2022-11-04T08:10:56;7.90;89.80
43808;DHT22;29438;50.664;10.098;2022-11-04T08:13:22;7.90;89.40
43808;DHT22;29438;50.664;10.098;2022-11-04T08:15:48;7.90;89.30
43808;DHT22;29438;50.664;10.098;2022-11-04T08:18:14;7.90;89.30
43808;DHT22;29438;50.664;10.098;2022-11-04T08:20:39;8.00;89.20
43808;DHT22;29438;50.664;10.098;2022-11-04T08:23:05;8.00;89.20
43808;DHT22;29438;50.664;10.098;2022-11-04T08:25:32;8.00;89.00
43808;DHT22;29438;50.664;10.098;2022-11-04T08:27:57;8.20;89.00
43808;DHT22;29438;50.664;10.098;2022-11-04T08:30:23;8.20;89.10
43808;DHT22;29438;50.664;10.098;2022-11-04T08:32:48;8.30;89.00
43808;DHT22;29438;50.664;10.098;2022-11-04T08:35:14;8.30;88.40
43808;DHT22;29438;50.664;10.098;2022-11-04T08:37:39;8.50;88.00
43808;DHT22;29438;50.664;10.098;2022-11-04T08:40:05;8.70;88.00
43808;DHT22;29438;50.664;10.098;2022-11-04T08:42:31;8.70;86.90
43808;DHT22;29438;50.664;10.098;2022-11-04T08:44:57;8.80;86.50
43808;DHT22;29438;50.664;10.098;2022-11-04T08:47:22;9.00;86.50
43808;DHT22;29438;50.664;10.098;2022-11-04T08:49:48;9.20;86.20
43808;DHT22;29438;50.664;10.098;2022-11-04T08:52:14;9.20;85.70
43808;DHT22;29438;50.664;10.098;2022-11-04T08:54:40;9.40;85.70
43808;DHT22;29438;50.664;10.098;2022-11-04T08:57:06;9.40;85.40
43808;DHT22;29438;50.664;10.098;2022-11-04T08:59:31;9.50;85.70
43808;DHT22;29438;50.664;10.098;2022-11-04T09:01:57;9.80;85.50
43808;DHT22;29438;50.664;10.098;2022-11-04T09:04:22;10.20;84.50
43808;DHT22;29438;50.664;10.098;2022-11-04T09:06:48;10.30;83.90
43808;DHT22;29438;50.664;10.098;2022-11-04T09:09:18;10.60;82.00
43808;DHT22;29438;50.664;10.098;2022-11-04T09:11:44;10.70;82.20
43808;DHT22;29438;50.664;10.098;2022-11-04T09:14:10;10.40;81.40
43808;DHT22;29438;50.664;10.098;2022-11-04T09:16:37;10.50;82.30
43808;DHT22;29438;50.664;10.098;2022-11-04T09:19:03;10.30;82.20
43808;DHT22;29438;50.664;10.098;2022-11-04T09:21:30;10.00;82.20
43808;DHT22;29438;50.664;10.098;2022-11-04T09:23:55;9.80;83.20
43808;DHT22;29438;50.664;10.098;2022-11-04T09:26:22;9.70;84.10
43808;DHT22;29438;50.664;10.098;2022-11-04T09:28:53;9.60;84.00
43808;DHT22;29438;50.664;10.098;2022-11-04T09:31:19;9.80;84.20
43808;DHT22;29438;50.664;10.098;2022-11-04T09:33:45;10.00;83.60
43808;DHT22;29438;50.664;10.098;2022-11-04T09:36:12;10.00;83.00
43808;DHT22;29438;50.664;10.098;2022-11-04T09:38:39;10.20;82.90
43808;DHT22;29438;50.664;10.098;2022-11-04T09:46:31;9.90;83.50
43808;DHT22;29438;50.664;10.098;2022-11-04T09:48:57;9.70;83.70
43808;DHT22;29438;50.664;10.098;2022-11-04T09:51:26;9.80;84.20
43808;DHT22;29438;50.664;10.098;2022-11-04T09:53:56;9.70;83.20
43808;DHT22;29438;50.664;10.098;2022-11-04T09:56:29;10.00;84.10
43808;DHT22;29438;50.664;10.098;2022-11-04T09:58:56;10.20;83.50
43808;DHT22;29438;50.664;10.098;2022-11-04T10:01:27;10.40;82.80
43808;DHT22;29438;50.664;10.098;2022-11-04T10:09:27;10.60;80.80
43808;DHT22;29438;50.664;10.098;2022-11-04T10:17:36;10.70;79.60
43808;DHT22;29438;50.664;10.098;2022-11-04T10:25:47;10.90;78.60
43808;DHT22;29438;50.664;10.098;2022-11-04T10:28:18;10.90;79.00
43808;DHT22;29438;50.664;10.098;2022-11-04T10:30:46;11.10;78.90
43808;DHT22;29438;50.664;10.098;2022-11-04T10:33:34;11.40;78.10
43808;DHT22;29438;50.664;10.098;2022-11-04T10:36:05;11.30;77.70
43808;DHT22;29438;50.664;10.098;2022-11-04T10:44:10;11.80;76.90
43808;DHT22;29438;50.664;10.098;2022-11-04T10:51:35;12.10;75.80
43808;DHT22;29438;50.664;10.098;2022-11-04T10:54:01;12.30;75.70
43808;DHT22;29438;50.664;10.098;2022-11-04T10:56:46;11.80;74.70
43808;DHT22;29438;50.664;10.098;2022-11-04T11:01:49;11.50;76.00
43808;DHT22;29438;50.664;10.098;2022-11-04T11:04:31;11.50;76.20
43808;DHT22;29438;50.664;10.098;2022-11-04T11:06:59;11.40;77.50
43808;DHT22;29438;50.664;10.098;2022-11-04T11:09:31;11.50;76.40
43808;DHT22;29438;50.664;10.098;2022-11-04T11:12:04;11.60;77.30
43808;DHT22;29438;50.664;10.098;2022-11-04T11:14:35;11.90;76.00
43808;DHT22;29438;50.664;10.098;2022-11-04T11:17:20;11.90;76.40
43808;DHT22;29438;50.664;10.098;2022-11-04T11:22:41;12.10;75.10
43808;DHT22;29438;50.664;10.098;2022-11-04T11:27:48;11.70;74.70
43808;DHT22;29438;50.664;10.098;2022-11-04T11:35:51;11.80;76.60
43808;DHT22;29438;50.664;10.098;2022-11-04T11:38:23;11.60;75.70
43808;DHT22;29438;50.664;10.098;2022-11-04T11:40:51;11.90;76.40
43808;DHT22;29438;50.664;10.098;2022-11-04T11:43:27;12.20;75.50
43808;DHT22;29438;50.664;10.098;2022-11-04T11:45:54;12.10;75.60
43808;DHT22;29438;50.664;10.098;2022-11-04T11:51:11;11.90;75.00
43808;DHT22;29438;50.664;10.098;2022-11-04T11:53:37;11.60;75.80
43808;DHT22;29438;50.664;10.098;2022-11-04T11:56:24;11.50;75.90
43808;DHT22;29438;50.664;10.098;2022-11-04T11:58:58;11.50;76.40
43808;DHT22;29438;50.664;10.098;2022-11-04T12:01:39;11.30;77.00
43808;DHT22;29438;50.664;10.098;2022-11-04T12:04:07;11.40;77.30
43808;DHT22;29438;50.664;10.098;2022-11-04T12:22:54;11.70;75.30
43808;DHT22;29438;50.664;10.098;2022-11-04T12:28:21;12.00;74.80
43808;DHT22;29438;50.664;10.098;2022-11-04T12:41:28;11.70;74.90
43808;DHT22;29438;50.664;10.098;2022-11-04T12:55:34;11.10;75.60
43808;DHT22;29438;50.664;10.098;2022-11-04T13:00:50;10.90;75.80
43808;DHT22;29438;50.664;10.098;2022-11-04T13:03:40;10.90;75.70
43808;DHT22;29438;50.664;10.098;2022-11-04T13:06:41;10.90;76.70
43808;DHT22;29438;50.664;10.098;2022-11-04T13:09:19;10.80;76.10
43808;DHT22;29438;50.664;10.098;2022-11-04T13:11:53;10.80;77.20
43808;DHT22;29438;50.664;10.098;2022-11-04T13:14:26;10.80;76.80
43808;DHT22;29438;50.664;10.098;2022-11-04T13:17:05;10.60;77.90
43808;DHT22;29438;50.664;10.098;2022-11-04T13:19:48;10.70;78.40
43808;DHT22;29438;50.664;10.098;2022-11-04T13:22:23;10.60;78.90
43808;DHT22;29438;50.664;10.098;2022-11-04T13:24:53;10.70;78.60
43808;DHT22;29438;50.664;10.098;2022-11-04T13:27:34;10.80;77.80
43808;DHT22;29438;50.664;10.098;2022-11-04T13:39:08;11.00;76.60
43808;DHT22;29438;50.664;10.098;2022-11-04T13:42:31;11.00;76.00
43808;DHT22;29438;50.664;10.098;2022-11-04T13:44:41;10.80;75.70
43808;DHT22;29438;50.664;10.098;2022-11-04T13:47:18;10.80;76.70
43808;DHT22;29438;50.664;10.098;2022-11-04T13:49:48;10.70;77.20
43808;DHT22;29438;50.664;10.098;2022-11-04T13:52:14;10.70;77.50
43808;DHT22;29438;50.664;10.098;2022-11-04T13:54:51;10.60;76.40
43808;DHT22;29438;50.664;10.098;2022-11-04T13:57:32;10.70;76.70
43808;DHT22;29438;50.664;10.098;2022-11-04T14:02:46;10.80;76.70
43808;DHT22;29438;50.664;10.098;2022-11-04T14:08:11;10.80;76.20
43808;DHT22;29438;50.664;10.098;2022-11-04T14:10:57;10.80;76.20
43808;DHT22;29438;50.664;10.098;2022-11-04T14:16:03;10.80;77.00
43808;DHT22;29438;50.664;10.098;2022-11-04T14:18:31;10.70;77.10
43808;DHT22;29438;50.664;10.098;2022-11-04T14:21:07;10.70;77.60
43808;DHT22;29438;50.664;10.098;2022-11-04T14:23:35;10.60;77.80
43808;DHT22;29438;50.664;10.098;2022-11-04T14:26:06;10.60;77.90
43808;DHT22;29438;50.664;10.098;2022-11-04T14:28:33;10.70;78.90
43808;DHT22;29438;50.664;10.098;2022-11-04T14:31:05;10.70;78.60
43808;DHT22;29438;50.664;10.098;2022-11-04T14:33:57;10.50;78.40
43808;DHT22;29438;50.664;10.098;2022-11-04T14:38:59;10.50;79.40
43808;DHT22;29438;50.664;10.098;2022-11-04T14:44:23;10.50;79.90
43808;DHT22;29438;50.664;10.098;2022-11-04T14:46:54;10.40;79.50
43808;DHT22;29438;50.664;10.098;2022-11-04T14:52:19;10.30;79.60
43808;DHT22;29438;50.664;10.098;2022-11-04T14:54:45;10.20;79.00
43808;DHT22;29438;50.664;10.098;2022-11-04T14:57:21;10.20;79.60
43808;DHT22;29438;50.664;10.098;2022-11-04T14:59:47;10.10;79.40
43808;DHT22;29438;50.664;10.098;2022-11-04T15:02:22;10.00;79.70
43808;DHT22;29438;50.664;10.098;2022-11-04T15:05:20;10.00;79.80
43808;DHT22;29438;50.664;10.098;2022-11-04T15:07:46;9.90;79.50
43808;DHT22;29438;50.664;10.098;2022-11-04T15:10:24;9.80;80.20
43808;DHT22;29438;50.664;10.098;2022-11-04T15:12:51;9.80;80.30
43808;DHT22;29438;50.664;10.098;2022-11-04T15:15:28;9.70;80.60
43808;DHT22;29438;50.664;10.098;2022-11-04T15:18:11;9.70;81.10
43808;DHT22;29438;50.664;10.098;2022-11-04T15:20:50;9.70;81.60
43808;DHT22;29438;50.664;10.098;2022-11-04T15:25:53;9.50;81.80
43808;DHT22;29438;50.664;10.098;2022-11-04T15:28:26;9.50;82.10
43808;DHT22;29438;50.664;10.098;2022-11-04T15:33:23;9.50;82.20
43808;DHT22;29438;50.664;10.098;2022-11-04T15:35:49;9.40;82.60
43808;DHT22;29438;50.664;10.098;2022-11-04T15:38:16;9.40;82.70
43808;DHT22;29438;50.664;10.098;2022-11-04T15:40:42;9.30;82.60
43808;DHT22;29438;50.664;10.098;2022-11-04T15:43:08;9.30;83.10
43808;DHT22;29438;50.664;10.098;2022-11-04T15:45:48;9.30;83.00
43808;DHT22;29438;50.664;10.098;2022-11-04T15:48:26;9.20;83.60
43808;DHT22;29438;50.664;10.098;2022-11-04T15:51:11;9.20;83.60
43808;DHT22;29438;50.664;10.098;2022-11-04T15:56:14;9.10;83.80
43808;DHT22;29438;50.664;10.098;2022-11-04T15:58:43;9.00;83.90
43808;DHT22;29438;50.664;10.098;2022-11-04T16:01:12;8.90;84.00
43808;DHT22;29438;50.664;10.098;2022-11-04T16:03:38;8.80;84.40
43808;DHT22;29438;50.664;10.098;2022-11-04T16:06:06;8.70;84.90
43808;DHT22;29438;50.664;10.098;2022-11-04T16:08:32;8.60;85.40
43808;DHT22;29438;50.664;10.098;2022-11-04T16:11:14;8.50;85.60
43808;DHT22;29438;50.664;10.098;2022-11-04T16:13:40;8.30;86.10
43808;DHT22;29438;50.664;10.098;2022-11-04T16:16:26;8.30;86.30
43808;DHT22;29438;50.664;10.098;2022-11-04T16:18:56;8.20;86.50
43808;DHT22;29438;50.664;10.098;2022-11-04T16:21:31;8.00;86.80
43808;DHT22;29438;50.664;10.098;2022-11-04T16:24:06;7.90;87.00
43808;DHT22;29438;50.664;10.098;2022-11-04T16:26:38;7.80;87.20
43808;DHT22;29438;50.664;10.098;2022-11-04T16:29:09;7.70;87.50
43808;DHT22;29438;50.664;10.098;2022-11-04T16:31:37;7.70;87.80
43808;DHT22;29438;50.664;10.098;2022-11-04T16:34:07;7.70;87.80
43808;DHT22;29438;50.664;10.098;2022-11-04T16:36:33;7.50;87.80
43808;DHT22;29438;50.664;10.098;2022-11-04T16:39:00;7.50;88.00
43808;DHT22;29438;50.664;10.098;2022-11-04T16:41:35;7.30;88.30
43808;DHT22;29438;50.664;10.098;2022-11-04T16:44:03;7.20;88.70
43808;DHT22;29438;50.664;10.098;2022-11-04T16:46:30;7.10;89.00
43808;DHT22;29438;50.664;10.098;2022-11-04T16:48:56;7.00;89.30
43808;DHT22;29438;50.664;10.098;2022-11-04T16:51:22;7.00;89.60
43808;DHT22;29438;50.664;10.098;2022-11-04T16:53:52;7.00;89.80
43808;DHT22;29438;50.664;10.098;2022-11-04T16:56:21;7.10;89.80
43808;DHT22;29438;50.664;10.098;2022-11-04T16:58:46;7.10;89.90
43808;DHT22;29438;50.664;10.098;2022-11-04T17:01:13;7.10;89.90
43808;DHT22;29438;50.664;10.098;2022-11-04T17:03:39;7.00;90.00
43808;DHT22;29438;50.664;10.098;2022-11-04T17:06:05;7.00;90.10
43808;DHT22;29438;50.664;10.098;2022-11-04T17:08:31;6.80;90.00
43808;DHT22;29438;50.664;10.098;2022-11-04T17:10:57;6.80;90.10
43808;DHT22;29438;50.664;10.098;2022-11-04T17:13:23;6.70;90.20
43808;DHT22;29438;50.664;10.098;2022-11-04T17:15:48;6.60;90.30
43808;DHT22;29438;50.664;10.098;2022-11-04T17:18:15;6.50;90.40
43808;DHT22;29438;50.664;10.098;2022-11-04T17:20:43;6.50;90.60
43808;DHT22;29438;50.664;10.098;2022-11-04T17:23:12;6.40;90.70
43808;DHT22;29438;50.664;10.098;2022-11-04T17:25:38;6.40;90.80
43808;DHT22;29438;50.664;10.098;2022-11-04T17:28:04;6.30;90.90
43808;DHT22;29438;50.664;10.098;2022-11-04T17:30:30;6.30;91.00
43808;DHT22;29438;50.664;10.098;2022-11-04T17:32:55;6.20;91.20
43808;DHT22;29438;50.664;10.098;2022-11-04T17:35:21;6.20;91.30
43808;DHT22;29438;50.664;10.098;2022-11-04T17:37:50;6.50;91.70
43808;DHT22;29438;50.664;10.098;2022-11-04T17:40:17;6.50;91.60
43808;DHT22;29438;50.664;10.098;2022-11-04T17:42:44;6.30;91.40
43808;DHT22;29438;50.664;10.098;2022-11-04T17:45:29;6.30;91.40
43808;DHT22;29438;50.664;10.098;2022-11-04T17:47:54;6.30;91.30
43808;DHT22;29438;50.664;10.098;2022-11-04T17:50:20;6.40;91.40
43808;DHT22;29438;50.664;10.098;2022-11-04T17:52:45;6.40;91.40
43808;DHT22;29438;50.664;10.098;2022-11-04T17:55:12;6.40;91.40
43808;DHT22;29438;50.664;10.098;2022-11-04T17:57:37;6.50;91.50
43808;DHT22;29438;50.664;10.098;2022-11-04T18:00:04;6.50;91.40
43808;DHT22;29438;50.664;10.098;2022-11-04T18:02:35;6.70;91.50
43808;DHT22;29438;50.664;10.098;2022-11-04T18:05:00;6.70;91.50
43808;DHT22;29438;50.664;10.098;2022-11-04T18:07:28;6.70;91.40
43808;DHT22;29438;50.664;10.098;2022-11-04T18:09:54;6.80;91.40
43808;DHT22;29438;50.664;10.098;2022-11-04T18:12:19;6.90;91.40
43808;DHT22;29438;50.664;10.098;2022-11-04T18:15:13;6.90;91.40
43808;DHT22;29438;50.664;10.098;2022-11-04T18:17:42;6.90;91.30
43808;DHT22;29438;50.664;10.098;2022-11-04T18:20:10;6.90;91.20
43808;DHT22;29438;50.664;10.098;2022-11-04T18:22:36;6.90;91.20
43808;DHT22;29438;50.664;10.098;2022-11-04T18:25:03;6.80;91.10
43808;DHT22;29438;50.664;10.098;2022-11-04T18:27:29;6.80;91.10
43808;DHT22;29438;50.664;10.098;2022-11-04T18:29:55;6.70;91.20
43808;DHT22;29438;50.664;10.098;2022-11-04T18:32:20;6.70;91.40
43808;DHT22;29438;50.664;10.098;2022-11-04T18:34:48;6.70;91.50
43808;DHT22;29438;50.664;10.098;2022-11-04T18:37:15;6.70;91.70